Silver Cloud — C6MQ5 — position and weather

sailwx.info

Track history (hours):
 
Tides and Currents Weather Stations Pressure Air Temp Water Temp Dewpoint Dewpoint Depression Visibility Wind Speed Wind Dir Waves Ship Positions

Silver Cloud

Operator: V Ships Leisure SAM

Last reported at 2019-Jun-13 00:19 UTC. Time now 2019-Jun-16 14:43 UTC.
Position N 61°56' W 006°58'.

Length 156 m; draft 5.7 m.

Type: Passenger vessel. MMSI: 309027000.

Date/timePositionNaut miles runAvg speedWind from/ knotsBaromVisibWave heightAir tempDewpointWater temp
2019-Jun-13 00:19N 61°56' W 006°58'3 8.6
2019-Jun-13 00:00N 61°55' W 006°52'5 9.2
2019-Jun-12 23:30N 61°56' W 006°43'2 0.1
2019-Jun-12 10:05N 61°57' W 006°41'1 7.6
2019-Jun-12 10:00N 61°57' W 006°41'188 7.7
2019-Jun-11 09:33N 59°15' W 003°26'114.7
2019-Jun-11 09:30N 59°14' W 003°27'714.6
2019-Jun-11 09:00N 59°10' W 003°39'714.4
2019-Jun-11 08:30N 59°07' W 003°51'714.4
2019-Jun-11 08:00N 59°03' W 004°03'212 7.6
2019-Jun-10 04:03N 55°48' W 006°38'111.4
2019-Jun-10 04:00N 55°48' W 006°38'611.5
2019-Jun-10 03:30N 55°42' W 006°40'510.2
2019-Jun-10 03:00N 55°37' W 006°37'612.0
2019-Jun-10 02:30N 55°34' W 006°29'611.9
2019-Jun-10 02:00N 55°29' W 006°21'611.6
2019-Jun-10 01:30N 55°26' W 006°13'611.7
2019-Jun-10 01:00N 55°24' W 006°04'611.9
2019-Jun-10 00:30N 55°19' W 005°57'611.2
2019-Jun-09 23:57N 55°14' W 005°51'2912.1
2019-Jun-09 21:33N 54°51' W 005°21'112.4
2019-Jun-09 21:26N 54°50' W 005°20'612.5
2019-Jun-09 20:59N 54°45' W 005°14'611.8
2019-Jun-09 20:30N 54°40' W 005°10'713.0
2019-Jun-09 20:00N 54°34' W 005°09'812.1
2019-Jun-09 19:21N 54°26' W 005°08'163 4.5
2019-Jun-08 06:55N 51°43' W 005°22'716.1
2019-Jun-08 06:31N 51°37' W 005°17'611.3
2019-Jun-08 06:00N 51°33' W 005°11'2 4.7
2019-Jun-08 05:30N 51°33' W 005°08'4 7.0
2019-Jun-08 05:01N 51°34' W 005°13'3 5.3
2019-Jun-08 04:31N 51°32' W 005°17'3 5.7
2019-Jun-08 04:00N 51°30' W 005°19'3 5.8
2019-Jun-08 03:29N 51°27' W 005°21'101 4.5
2019-Jun-07 05:03N 49°48' W 005°56'7810.8
2019-Jun-06 21:47N 49°33' W 003°57'4311.2
2019-Jun-06 18:00N 49°25' W 002°53'711.2
2019-Jun-06 17:24N 49°23' W 002°42'410.9
2019-Jun-06 17:00N 49°23' W 002°36'5 9.7
2019-Jun-06 16:30N 49°26' W 002°30'2 2.9
2019-Jun-06 15:58N 49°28' W 002°30'0 0.1
2019-Jun-06 15:28N 49°28' W 002°30'0 0.1
2019-Jun-06 14:58N 49°28' W 002°30'0 0.2
2019-Jun-06 14:28N 49°28' W 002°30'0 0.2
2019-Jun-06 13:58N 49°28' W 002°30'0 0.2
2019-Jun-06 13:25N 49°28' W 002°30'0 0.1
2019-Jun-06 12:55N 49°28' W 002°30'0 0.2
2019-Jun-06 12:28N 49°28' W 002°30'0 0.0
2019-Jun-06 11:58N 49°28' W 002°30'0 0.1
2019-Jun-06 11:28N 49°28' W 002°30'0 0.0
2019-Jun-06 10:58N 49°28' W 002°30'0 0.0
2019-Jun-06 10:28N 49°28' W 002°30'0 0.0
2019-Jun-06 09:58N 49°28' W 002°30'0 0.0
2019-Jun-06 09:28N 49°28' W 002°30'0 0.0
2019-Jun-06 08:58N 49°28' W 002°30'0 0.0
2019-Jun-06 08:28N 49°28' W 002°30'0 0.0
2019-Jun-06 07:58N 49°28' W 002°30'0 0.0
2019-Jun-06 07:28N 49°28' W 002°30'0 0.0
2019-Jun-06 06:58N 49°28' W 002°30'0 0.8
2019-Jun-06 06:30N 49°27' W 002°30'4 8.6
2019-Jun-06 06:00N 49°24' W 002°33'6 9.8
2019-Jun-06 05:21N 49°23' W 002°42'710.1
2019-Jun-06 04:39N 49°29' W 002°49'2910.4
2019-Jun-06 01:52N 49°57' W 003°00'410.6
2019-Jun-06 01:31N 49°58' W 002°55'611.5
2019-Jun-06 00:59N 49°60' W 002°46'17212.1
2019-Jun-05 10:46N 51°03' E 001°25'312.8
2019-Jun-05 10:30N 51°05' E 001°29'611.9
2019-Jun-05 10:00N 51°09' E 001°36'612.2
2019-Jun-05 09:30N 51°15' E 001°39'612.4
2019-Jun-05 09:01N 51°21' E 001°36'713.0
2019-Jun-05 08:30N 51°27' E 001°30'713.1
2019-Jun-05 08:00N 51°28' E 001°20'713.2
2019-Jun-05 07:30N 51°29' E 001°09'5 9.9
2019-Jun-05 07:00N 51°30' E 001°01'816.3
2019-Jun-05 06:30N 51°29' E 000°48'816.8
2019-Jun-05 06:01N 51°30' E 000°35'510.7
2019-Jun-05 05:30N 51°28' E 000°27'4 8.8
2019-Jun-05 05:01N 51°27' E 000°20'510.5
2019-Jun-05 04:30N 51°29' E 000°12'510.1
2019-Jun-05 04:01N 51°30' E 000°04'3 5.9
2019-Jun-05 03:30N 51°29' W 000°00'3 4.1
2019-Jun-05 02:53N 51°30' W 000°04'1 0.7
2019-Jun-05 02:01N 51°30' W 000°05'0 0.0
2019-Jun-04 21:58N 51°30' W 000°05'0 0.0
2019-Jun-04 10:42N 51°30' W 000°05'0 0.0
2019-Jun-04 09:00N 51°30' W 000°05'0 0.0
2019-Jun-04 08:18N 51°30' W 000°05'0 0.0
2019-Jun-04 03:33N 51°30' W 000°05'0 0.0
2019-Jun-03 18:45N 51°30' W 000°05'0 0.0
2019-Jun-03 15:12N 51°30' W 000°05'0 0.0
2019-Jun-03 10:42N 51°30' W 000°05'0 0.0
2019-Jun-03 07:48N 51°30' W 000°05'0 0.0
2019-Jun-03 05:48N 51°30' W 000°05'0 0.0
2019-Jun-03 03:06N 51°30' W 000°05'0 0.0
2019-Jun-03 02:48N 51°30' W 000°05'0 0.0
2019-Jun-03 02:30N 51°30' W 000°05'1 2.1
2019-Jun-03 01:57N 51°30' W 000°03'2 4.7
2019-Jun-03 01:30N 51°29' W 000°00'4 7.6
2019-Jun-03 01:00N 51°31' E 000°06'611.7
2019-Jun-03 00:31N 51°29' E 000°14'  
Track history (hours):
 
Tides and Currents Weather Stations Pressure Air Temp Water Temp Dewpoint Dewpoint Depression Visibility Wind Speed Wind Dir Waves Ship Positions

Silver Cloud

Operator: V Ships Leisure SAM

Last reported at 2019-Jun-13 00:19 UTC. Time now 2019-Jun-16 14:43 UTC.
Position N 61°56' W 006°58'.

Length 156 m; draft 5.7 m.

Type: Passenger vessel. MMSI: 309027000.

Date/timePositionNaut miles runAvg speedWind from/ knotsBaromVisibWave heightAir tempDewpointWater temp
2019-Jun-13 00:19N 61°56' W 006°58'3 8.6
2019-Jun-13 00:00N 61°55' W 006°52'5 9.2
2019-Jun-12 23:30N 61°56' W 006°43'2 0.1
2019-Jun-12 10:05N 61°57' W 006°41'1 7.6
2019-Jun-12 10:00N 61°57' W 006°41'188 7.7
2019-Jun-11 09:33N 59°15' W 003°26'114.7
2019-Jun-11 09:30N 59°14' W 003°27'714.6
2019-Jun-11 09:00N 59°10' W 003°39'714.4
2019-Jun-11 08:30N 59°07' W 003°51'714.4
2019-Jun-11 08:00N 59°03' W 004°03'212 7.6
2019-Jun-10 04:03N 55°48' W 006°38'111.4
2019-Jun-10 04:00N 55°48' W 006°38'611.5
2019-Jun-10 03:30N 55°42' W 006°40'510.2
2019-Jun-10 03:00N 55°37' W 006°37'612.0
2019-Jun-10 02:30N 55°34' W 006°29'611.9
2019-Jun-10 02:00N 55°29' W 006°21'611.6
2019-Jun-10 01:30N 55°26' W 006°13'611.7
2019-Jun-10 01:00N 55°24' W 006°04'611.9
2019-Jun-10 00:30N 55°19' W 005°57'611.2
2019-Jun-09 23:57N 55°14' W 005°51'2912.1
2019-Jun-09 21:33N 54°51' W 005°21'112.4
2019-Jun-09 21:26N 54°50' W 005°20'612.5
2019-Jun-09 20:59N 54°45' W 005°14'611.8
2019-Jun-09 20:30N 54°40' W 005°10'713.0
2019-Jun-09 20:00N 54°34' W 005°09'812.1
2019-Jun-09 19:21N 54°26' W 005°08'163 4.5
2019-Jun-08 06:55N 51°43' W 005°22'716.1
2019-Jun-08 06:31N 51°37' W 005°17'611.3
2019-Jun-08 06:00N 51°33' W 005°11'2 4.7
2019-Jun-08 05:30N 51°33' W 005°08'4 7.0
2019-Jun-08 05:01N 51°34' W 005°13'3 5.3
2019-Jun-08 04:31N 51°32' W 005°17'3 5.7
2019-Jun-08 04:00N 51°30' W 005°19'3 5.8
2019-Jun-08 03:29N 51°27' W 005°21'101 4.5
2019-Jun-07 05:03N 49°48' W 005°56'7810.8
2019-Jun-06 21:47N 49°33' W 003°57'4311.2
2019-Jun-06 18:00N 49°25' W 002°53'711.2
2019-Jun-06 17:24N 49°23' W 002°42'410.9
2019-Jun-06 17:00N 49°23' W 002°36'5 9.7
2019-Jun-06 16:30N 49°26' W 002°30'2 2.9
2019-Jun-06 15:58N 49°28' W 002°30'0 0.1
2019-Jun-06 15:28N 49°28' W 002°30'0 0.1
2019-Jun-06 14:58N 49°28' W 002°30'0 0.2
2019-Jun-06 14:28N 49°28' W 002°30'0 0.2
2019-Jun-06 13:58N 49°28' W 002°30'0 0.2
2019-Jun-06 13:25N 49°28' W 002°30'0 0.1
2019-Jun-06 12:55N 49°28' W 002°30'0 0.2
2019-Jun-06 12:28N 49°28' W 002°30'0 0.0
2019-Jun-06 11:58N 49°28' W 002°30'0 0.1
2019-Jun-06 11:28N 49°28' W 002°30'0 0.0
2019-Jun-06 10:58N 49°28' W 002°30'0 0.0
2019-Jun-06 10:28N 49°28' W 002°30'0 0.0
2019-Jun-06 09:58N 49°28' W 002°30'0 0.0
2019-Jun-06 09:28N 49°28' W 002°30'0 0.0
2019-Jun-06 08:58N 49°28' W 002°30'0 0.0
2019-Jun-06 08:28N 49°28' W 002°30'0 0.0
2019-Jun-06 07:58N 49°28' W 002°30'0 0.0
2019-Jun-06 07:28N 49°28' W 002°30'0 0.0
2019-Jun-06 06:58N 49°28' W 002°30'0 0.8
2019-Jun-06 06:30N 49°27' W 002°30'4 8.6
2019-Jun-06 06:00N 49°24' W 002°33'6 9.8
2019-Jun-06 05:21N 49°23' W 002°42'710.1
2019-Jun-06 04:39N 49°29' W 002°49'2910.4
2019-Jun-06 01:52N 49°57' W 003°00'410.6
2019-Jun-06 01:31N 49°58' W 002°55'611.5
2019-Jun-06 00:59N 49°60' W 002°46'17212.1
2019-Jun-05 10:46N 51°03' E 001°25'312.8
2019-Jun-05 10:30N 51°05' E 001°29'611.9
2019-Jun-05 10:00N 51°09' E 001°36'612.2
2019-Jun-05 09:30N 51°15' E 001°39'612.4
2019-Jun-05 09:01N 51°21' E 001°36'713.0
2019-Jun-05 08:30N 51°27' E 001°30'713.1
2019-Jun-05 08:00N 51°28' E 001°20'713.2
2019-Jun-05 07:30N 51°29' E 001°09'5 9.9
2019-Jun-05 07:00N 51°30' E 001°01'816.3
2019-Jun-05 06:30N 51°29' E 000°48'816.8
2019-Jun-05 06:01N 51°30' E 000°35'510.7
2019-Jun-05 05:30N 51°28' E 000°27'4 8.8
2019-Jun-05 05:01N 51°27' E 000°20'510.5
2019-Jun-05 04:30N 51°29' E 000°12'510.1
2019-Jun-05 04:01N 51°30' E 000°04'3 5.9
2019-Jun-05 03:30N 51°29' W 000°00'3 4.1
2019-Jun-05 02:53N 51°30' W 000°04'1 0.7
2019-Jun-05 02:01N 51°30' W 000°05'0 0.0
2019-Jun-04 21:58N 51°30' W 000°05'0 0.0
2019-Jun-04 10:42N 51°30' W 000°05'0 0.0
2019-Jun-04 09:00N 51°30' W 000°05'0 0.0
2019-Jun-04 08:18N 51°30' W 000°05'0 0.0
2019-Jun-04 03:33N 51°30' W 000°05'0 0.0
2019-Jun-03 18:45N 51°30' W 000°05'0 0.0
2019-Jun-03 15:12N 51°30' W 000°05'0 0.0
2019-Jun-03 10:42N 51°30' W 000°05'0 0.0
2019-Jun-03 07:48N 51°30' W 000°05'0 0.0
2019-Jun-03 05:48N 51°30' W 000°05'0 0.0
2019-Jun-03 03:06N 51°30' W 000°05'0 0.0
2019-Jun-03 02:48N 51°30' W 000°05'0 0.0
2019-Jun-03 02:30N 51°30' W 000°05'1 2.1
2019-Jun-03 01:57N 51°30' W 000°03'2 4.7
2019-Jun-03 01:30N 51°29' W 000°00'4 7.6
2019-Jun-03 01:00N 51°31' E 000°06'611.7
2019-Jun-03 00:31N 51°29' E 000°14'  

Dump ship's entire track history